Back to Top

Language: 

My Weather Underground Personal Weather Station Historical Data with Graphs...

Delerius Weather Station Historical Data
Daily Summary for January 12, 2017 Units:  Both    English   Metric
« Previous Day
Next Day »
Daily Weekly Monthly Yearly Custom
  High: Low: Average:
Temperature: 41.4 °F /  5.2 °C 33.5 °F /  0.8 °C 37.4 °F /  3 °C
Dew Point: 36.9 °F /  2.7 °C 30.0 °F /  -1.1 °C 34 °F /  1.1 °C
Humidity: 94 % 76 % 88 %
Wind Speed: 22.0 mph /  35.4 km/h - 9.7 mph /  15.6 km/h
Wind Gust: 35.0 mph /  56.3 km/h - -
Wind:- - West
Pressure: 29.75 in /  1007.3 hPa 29.40 in /  995.5 hPa -
Precipitation: 0.03 in /  0.76 mm    
Historical Graphs
 
 
Tabular Data for January 12, 2017
Time Temperature Dew Point Pressure Wind Wind Speed Wind Gust Humidity Rainfall Rate (Hourly) solar Conditions
00:05 41.4 °F /  5.2 °C 34.4 °F /  1.3 °C 29.74 in /  1007 hPa WNW 20.0 mph /  32.2 km/h 30.0 mph /  48.3 km/h 76 % 0.00 in /  0 mm 0 W/m2
00:15 41.3 °F /  5.2 °C 34.3 °F /  1.3 °C 29.74 in /  1007 hPa WNW 19.0 mph /  30.6 km/h 20.0 mph /  32.2 km/h 76 % 0.00 in /  0 mm 0 W/m2
00:25 41.2 °F /  5.1 °C 34.2 °F /  1.2 °C 29.75 in /  1007.3 hPa WNW 21.0 mph /  33.8 km/h 27.0 mph /  43.5 km/h 76 % 0.00 in /  0 mm 0 W/m2
00:30 41.0 °F /  5 °C 34.3 °F /  1.3 °C 29.74 in /  1007 hPa West 20.0 mph /  32.2 km/h 20.0 mph /  32.2 km/h 77 % 0.00 in /  0 mm 0 W/m2
00:35 40.8 °F /  4.9 °C 34.1 °F /  1.2 °C 29.74 in /  1007 hPa West 20.0 mph /  32.2 km/h 20.0 mph /  32.2 km/h 77 % 0.00 in /  0 mm 0 W/m2
00:40 40.7 °F /  4.8 °C 34.4 °F /  1.3 °C 29.74 in /  1007 hPa WNW 20.0 mph /  32.2 km/h 20.0 mph /  32.2 km/h 78 % 0.00 in /  0 mm 0 W/m2
00:45 40.7 °F /  4.8 °C 34.7 °F /  1.5 °C 29.74 in /  1007 hPa West 21.0 mph /  33.8 km/h 23.0 mph /  37 km/h 79 % 0.00 in /  0 mm 0 W/m2
00:50 40.7 °F /  4.8 °C 34.4 °F /  1.3 °C 29.74 in /  1007 hPa WNW 22.0 mph /  35.4 km/h 25.0 mph /  40.2 km/h 78 % 0.00 in /  0 mm 0 W/m2
00:55 40.8 °F /  4.9 °C 34.5 °F /  1.4 °C 29.74 in /  1007 hPa West 22.0 mph /  35.4 km/h 29.0 mph /  46.7 km/h 78 % 0.00 in /  0 mm 0 W/m2
01:05 40.8 °F /  4.9 °C 34.8 °F /  1.6 °C 29.73 in /  1006.7 hPa NW 21.0 mph /  33.8 km/h 24.0 mph /  38.6 km/h 79 % 0.00 in /  0 mm 0 W/m2
01:15 40.6 °F /  4.8 °C 34.6 °F /  1.4 °C 29.73 in /  1006.7 hPa WSW 18.0 mph /  29 km/h 35.0 mph /  56.3 km/h 79 % 0.00 in /  0 mm 0 W/m2
01:20 40.7 °F /  4.8 °C 34.7 °F /  1.5 °C 29.72 in /  1006.3 hPa West 21.0 mph /  33.8 km/h 35.0 mph /  56.3 km/h 79 % 0.00 in /  0 mm 0 W/m2
01:25 40.6 °F /  4.8 °C 34.6 °F /  1.4 °C 29.72 in /  1006.3 hPa WSW 20.0 mph /  32.2 km/h 35.0 mph /  56.3 km/h 79 % 0.00 in /  0 mm 0 W/m2
01:30 40.7 °F /  4.8 °C 34.7 °F /  1.5 °C 29.72 in /  1006.3 hPa West 20.0 mph /  32.2 km/h 35.0 mph /  56.3 km/h 79 % 0.00 in /  0 mm 0 W/m2
01:35 40.8 °F /  4.9 °C 34.8 °F /  1.6 °C 29.72 in /  1006.3 hPa West 22.0 mph /  35.4 km/h 35.0 mph /  56.3 km/h 79 % 0.00 in /  0 mm 0 W/m2
01:40 40.7 °F /  4.8 °C 34.7 °F /  1.5 °C 29.72 in /  1006.3 hPa West 21.0 mph /  33.8 km/h 21.0 mph /  33.8 km/h 79 % 0.00 in /  0 mm 0 W/m2
01:45 40.6 °F /  4.8 °C 34.9 °F /  1.6 °C 29.72 in /  1006.3 hPa WNW 19.0 mph /  30.6 km/h 35.0 mph /  56.3 km/h 80 % 0.00 in /  0 mm 0 W/m2
01:55 40.6 °F /  4.8 °C 34.6 °F /  1.4 °C 29.72 in /  1006.3 hPa West 19.0 mph /  30.6 km/h 19.0 mph /  30.6 km/h 79 % 0.00 in /  0 mm 0 W/m2
02:00 40.7 °F /  4.8 °C 34.4 °F /  1.3 °C 29.71 in /  1006 hPa WSW 19.0 mph /  30.6 km/h 35.0 mph /  56.3 km/h 78 % 0.00 in /  0 mm 0 W/m2
02:05 40.7 °F /  4.8 °C 34.7 °F /  1.5 °C 29.72 in /  1006.3 hPa West 18.0 mph /  29 km/h 35.0 mph /  56.3 km/h 79 % 0.00 in /  0 mm 0 W/m2
02:10 40.8 °F /  4.9 °C 35.1 °F /  1.7 °C 29.71 in /  1006 hPa WSW 20.0 mph /  32.2 km/h 20.0 mph /  32.2 km/h 80 % 0.00 in /  0 mm 0 W/m2
02:15 40.8 °F /  4.9 °C 35.4 °F /  1.9 °C 29.71 in /  1006 hPa West 22.0 mph /  35.4 km/h 27.0 mph /  43.5 km/h 81 % 0.00 in /  0 mm 0 W/m2
02:25 40.7 °F /  4.8 °C 35.3 °F /  1.8 °C 29.71 in /  1006 hPa WNW 19.0 mph /  30.6 km/h 23.0 mph /  37 km/h 81 % 0.00 in /  0 mm 0 W/m2
02:30 40.7 °F /  4.8 °C 35.3 °F /  1.8 °C 29.71 in /  1006 hPa West 19.0 mph /  30.6 km/h 35.0 mph /  56.3 km/h 81 % 0.00 in /  0 mm 0 W/m2
02:35 40.7 °F /  4.8 °C 35.3 °F /  1.8 °C 29.71 in /  1006 hPa West 18.0 mph /  29 km/h 35.0 mph /  56.3 km/h 81 % 0.00 in /  0 mm 0 W/m2
02:40 40.7 °F /  4.8 °C 35.3 °F /  1.8 °C 29.71 in /  1006 hPa West 19.0 mph /  30.6 km/h 35.0 mph /  56.3 km/h 81 % 0.00 in /  0 mm 0 W/m2
02:45 40.6 °F /  4.8 °C 35.2 °F /  1.8 °C 29.71 in /  1006 hPa WNW 18.0 mph /  29 km/h 35.0 mph /  56.3 km/h 81 % 0.00 in /  0 mm 0 W/m2
02:50 40.7 °F /  4.8 °C 35.6 °F /  2 °C 29.71 in /  1006 hPa NW 18.0 mph /  29 km/h 18.0 mph /  29 km/h 82 % 0.00 in /  0 mm 0 W/m2
03:00 40.3 °F /  4.6 °C 34.9 °F /  1.6 °C 29.71 in /  1006 hPa West 19.0 mph /  30.6 km/h 35.0 mph /  56.3 km/h 81 % 0.00 in /  0 mm 0 W/m2
03:05 40.3 °F /  4.6 °C 34.9 °F /  1.6 °C 29.71 in /  1006 hPa WNW 19.0 mph /  30.6 km/h 35.0 mph /  56.3 km/h 81 % 0.00 in /  0 mm 0 W/m2
03:10 40.2 °F /  4.6 °C 34.5 °F /  1.4 °C 29.71 in /  1006 hPa WSW 19.0 mph /  30.6 km/h 19.0 mph /  30.6 km/h 80 % 0.00 in /  0 mm 0 W/m2
03:15 40.1 °F /  4.5 °C 34.4 °F /  1.3 °C 29.70 in /  1005.6 hPa WNW 18.0 mph /  29 km/h 24.0 mph /  38.6 km/h 80 % 0.00 in /  0 mm 0 W/m2
03:20 39.9 °F /  4.4 °C 34.5 °F /  1.4 °C 29.71 in /  1006 hPa West 17.0 mph /  27.4 km/h 35.0 mph /  56.3 km/h 81 % 0.00 in /  0 mm 0 W/m2
03:25 39.7 °F /  4.3 °C 34.3 °F /  1.3 °C 29.71 in /  1006 hPa WNW 19.0 mph /  30.6 km/h 35.0 mph /  56.3 km/h 81 % 0.00 in /  0 mm 0 W/m2
03:30 39.4 °F /  4.1 °C 34.4 °F /  1.3 °C 29.70 in /  1005.6 hPa West 19.0 mph /  30.6 km/h 35.0 mph /  56.3 km/h 82 % 0.00 in /  0 mm 0 W/m2
03:40 38.7 °F /  3.7 °C 34.6 °F /  1.4 °C 29.70 in /  1005.6 hPa WNW 20.0 mph /  32.2 km/h 20.0 mph /  32.2 km/h 85 % 0.00 in /  0 mm 0 W/m2
03:45 38.4 °F /  3.6 °C 34.6 °F /  1.4 °C 29.71 in /  1006 hPa WNW 20.0 mph /  32.2 km/h 35.0 mph /  56.3 km/h 86 % 0.00 in /  0 mm 0 W/m2
03:50 38.3 °F /  3.5 °C 34.8 °F /  1.6 °C 29.71 in /  1006 hPa WNW 19.0 mph /  30.6 km/h 35.0 mph /  56.3 km/h 87 % 0.00 in /  0 mm 0 W/m2
03:55 38.3 °F /  3.5 °C 34.8 °F /  1.6 °C 29.71 in /  1006 hPa West 18.0 mph /  29 km/h 35.0 mph /  56.3 km/h 87 % 0.00 in /  0 mm 0 W/m2
04:00 38.3 °F /  3.5 °C 35.1 °F /  1.7 °C 29.71 in /  1006 hPa WNW 17.0 mph /  27.4 km/h 17.0 mph /  27.4 km/h 88 % 0.00 in /  0 mm 0 W/m2
04:05 38.3 °F /  3.5 °C 35.1 °F /  1.7 °C 29.72 in /  1006.3 hPa West 15.0 mph /  24.1 km/h 35.0 mph /  56.3 km/h 88 % 0.00 in /  0 mm 0 W/m2
04:10 38.4 °F /  3.6 °C 35.2 °F /  1.8 °C 29.72 in /  1006.3 hPa West 15.0 mph /  24.1 km/h 35.0 mph /  56.3 km/h 88 % 0.00 in /  0 mm 0 W/m2
04:15 38.4 °F /  3.6 °C 35.2 °F /  1.8 °C 29.71 in /  1006 hPa West 16.0 mph /  25.7 km/h 35.0 mph /  56.3 km/h 88 % 0.00 in /  0 mm 0 W/m2
04:25 38.3 °F /  3.5 °C 35.3 °F /  1.8 °C 29.70 in /  1005.6 hPa West 16.0 mph /  25.7 km/h 25.0 mph /  40.2 km/h 89 % 0.00 in /  0 mm 0 W/m2
04:35 38.2 °F /  3.4 °C 35.2 °F /  1.8 °C 29.70 in /  1005.6 hPa West 14.0 mph /  22.5 km/h 35.0 mph /  56.3 km/h 89 % 0.00 in /  0 mm 0 W/m2
04:40 38.3 °F /  3.5 °C 35.1 °F /  1.7 °C 29.70 in /  1005.6 hPa West 13.0 mph /  20.9 km/h 13.0 mph /  20.9 km/h 88 % 0.00 in /  0 mm 0 W/m2
04:45 38.3 °F /  3.5 °C 35.1 °F /  1.7 °C 29.70 in /  1005.6 hPa WNW 12.0 mph /  19.3 km/h 35.0 mph /  56.3 km/h 88 % 0.00 in /  0 mm 0 W/m2
04:50 38.4 °F /  3.6 °C 35.2 °F /  1.8 °C 29.71 in /  1006 hPa WSW 13.0 mph /  20.9 km/h 35.0 mph /  56.3 km/h 88 % 0.00 in /  0 mm 0 W/m2
04:55 38.4 °F /  3.6 °C 34.9 °F /  1.6 °C 29.70 in /  1005.6 hPa WNW 13.0 mph /  20.9 km/h 35.0 mph /  56.3 km/h 87 % 0.00 in /  0 mm 0 W/m2
05:05 38.5 °F /  3.6 °C 35.0 °F /  1.7 °C 29.71 in /  1006 hPa NNW 12.0 mph /  19.3 km/h 14.0 mph /  22.5 km/h 87 % 0.00 in /  0 mm 0 W/m2
05:15 38.6 °F /  3.7 °C 35.1 °F /  1.7 °C 29.71 in /  1006 hPa WNW 13.0 mph /  20.9 km/h 35.0 mph /  56.3 km/h 87 % 0.00 in /  0 mm 0 W/m2
05:20 38.6 °F /  3.7 °C 35.1 °F /  1.7 °C 29.70 in /  1005.6 hPa West 14.0 mph /  22.5 km/h 35.0 mph /  56.3 km/h 87 % 0.00 in /  0 mm 0 W/m2
05:25 38.4 °F /  3.6 °C 34.9 °F /  1.6 °C 29.70 in /  1005.6 hPa West 14.0 mph /  22.5 km/h 35.0 mph /  56.3 km/h 87 % 0.00 in /  0 mm 0 W/m2
05:30 38.2 °F /  3.4 °C 34.7 °F /  1.5 °C 29.70 in /  1005.6 hPa West 12.0 mph /  19.3 km/h 12.0 mph /  19.3 km/h 87 % 0.00 in /  0 mm 0 W/m2
05:35 38.1 °F /  3.4 °C 34.6 °F /  1.4 °C 29.71 in /  1006 hPa WSW 9.0 mph /  14.5 km/h 35.0 mph /  56.3 km/h 87 % 0.00 in /  0 mm 0 W/m2
05:40 38.1 °F /  3.4 °C 34.9 °F /  1.6 °C 29.70 in /  1005.6 hPa West 10.0 mph /  16.1 km/h 10.0 mph /  16.1 km/h 88 % 0.00 in /  0 mm 0 W/m2
05:50 38.1 °F /  3.4 °C 35.1 °F /  1.7 °C 29.71 in /  1006 hPa West 9.0 mph /  14.5 km/h 35.0 mph /  56.3 km/h 89 % 0.00 in /  0 mm 0 W/m2
05:55 38.1 °F /  3.4 °C 35.1 °F /  1.7 °C 29.71 in /  1006 hPa SW 8.0 mph /  12.9 km/h 35.0 mph /  56.3 km/h 89 % 0.00 in /  0 mm 0 W/m2
06:00 38.1 °F /  3.4 °C 35.1 °F /  1.7 °C 29.71 in /  1006 hPa WSW 7.0 mph /  11.3 km/h 7.0 mph /  11.3 km/h 89 % 0.00 in /  0 mm 0 W/m2
06:05 38.1 °F /  3.4 °C 35.1 °F /  1.7 °C 29.71 in /  1006 hPa WSW 6.0 mph /  9.7 km/h 35.0 mph /  56.3 km/h 89 % 0.00 in /  0 mm 0 W/m2
06:10 38.1 °F /  3.4 °C 35.1 °F /  1.7 °C 29.71 in /  1006 hPa WNW 6.0 mph /  9.7 km/h 6.0 mph /  9.7 km/h 89 % 0.00 in /  0 mm 0 W/m2
06:15 38.1 °F /  3.4 °C 35.1 °F /  1.7 °C 29.71 in /  1006 hPa WNW 7.0 mph /  11.3 km/h 7.0 mph /  11.3 km/h 89 % 0.00 in /  0 mm 0 W/m2
06:20 38.1 °F /  3.4 °C 35.1 °F /  1.7 °C 29.71 in /  1006 hPa SW 6.0 mph /  9.7 km/h 6.0 mph /  9.7 km/h 89 % 0.00 in /  0 mm 0 W/m2
06:30 38.1 °F /  3.4 °C 35.1 °F /  1.7 °C 29.71 in /  1006 hPa Calm   35.0 mph /  56.3 km/h 89 % 0.00 in /  0 mm 0 W/m2
06:35 38.1 °F /  3.4 °C 35.1 °F /  1.7 °C 29.70 in /  1005.6 hPa Calm   35.0 mph /  56.3 km/h 89 % 0.00 in /  0 mm 0 W/m2
06:40 38.1 °F /  3.4 °C 35.1 °F /  1.7 °C 29.70 in /  1005.6 hPa NE 1.0 mph /  1.6 km/h 35.0 mph /  56.3 km/h 89 % 0.00 in /  0 mm 0 W/m2
06:45 38.2 °F /  3.4 °C 35.2 °F /  1.8 °C 29.70 in /  1005.6 hPa SE 3.0 mph /  4.8 km/h 35.0 mph /  56.3 km/h 89 % 0.00 in /  0 mm 0 W/m2
06:50 38.3 °F /  3.5 °C 35.3 °F /  1.8 °C 29.70 in /  1005.6 hPa SSW 3.0 mph /  4.8 km/h 3.0 mph /  4.8 km/h 89 % 0.00 in /  0 mm 0 W/m2
06:55 38.3 °F /  3.5 °C 35.3 °F /  1.8 °C 29.70 in /  1005.6 hPa SSE 4.0 mph /  6.4 km/h 8.0 mph /  12.9 km/h 89 % 0.00 in /  0 mm 0 W/m2
07:00 38.1 °F /  3.4 °C 35.1 °F /  1.7 °C 29.70 in /  1005.6 hPa ESE 5.0 mph /  8 km/h 35.0 mph /  56.3 km/h 89 % 0.07 in /  1.78 mm 0 W/m2
07:10 38.2 °F /  3.4 °C 35.5 °F /  1.9 °C 29.69 in /  1005.3 hPa SW 8.0 mph /  12.9 km/h 35.0 mph /  56.3 km/h 90 % 0.04 in /  1.02 mm 0 W/m2
07:15 38.7 °F /  3.7 °C 35.7 °F /  2.1 °C 29.69 in /  1005.3 hPa SW 8.0 mph /  12.9 km/h 35.0 mph /  56.3 km/h 89 % 0.00 in /  0 mm 0 W/m2
07:20 39.1 °F /  3.9 °C 35.8 °F /  2.1 °C 29.69 in /  1005.3 hPa SSW 8.0 mph /  12.9 km/h 35.0 mph /  56.3 km/h 88 % 0.00 in /  0 mm 0 W/m2
07:25 39.3 °F /  4.1 °C 35.8 °F /  2.1 °C 29.69 in /  1005.3 hPa SSW 10.0 mph /  16.1 km/h 35.0 mph /  56.3 km/h 87 % 0.00 in /  0 mm 0 W/m2
07:30 39.3 °F /  4.1 °C 36.0 °F /  2.2 °C 29.69 in /  1005.3 hPa South 8.0 mph /  12.9 km/h 35.0 mph /  56.3 km/h 88 % 0.00 in /  0 mm 0 W/m2
07:35 39.2 °F /  4 °C 35.9 °F /  2.2 °C 29.69 in /  1005.3 hPa SSW 8.0 mph /  12.9 km/h 35.0 mph /  56.3 km/h 88 % 0.00 in /  0 mm 0 W/m2
07:45 39.2 °F /  4 °C 35.7 °F /  2.1 °C 29.69 in /  1005.3 hPa WSW 8.0 mph /  12.9 km/h 35.0 mph /  56.3 km/h 87 % 0.00 in /  0 mm 0 W/m2
07:50 39.2 °F /  4 °C 35.9 °F /  2.2 °C 29.69 in /  1005.3 hPa SSW 6.0 mph /  9.7 km/h 35.0 mph /  56.3 km/h 88 % 0.00 in /  0 mm 0 W/m2
07:55 39.1 °F /  3.9 °C 35.6 °F /  2 °C 29.68 in /  1005 hPa SW 8.0 mph /  12.9 km/h 35.0 mph /  56.3 km/h 87 % 0.00 in /  0 mm 0 W/m2
08:00 39.0 °F /  3.9 °C 35.5 °F /  1.9 °C 29.68 in /  1005 hPa SW 8.0 mph /  12.9 km/h 35.0 mph /  56.3 km/h 87 % 0.00 in /  0 mm 0 W/m2
08:05 39.0 °F /  3.9 °C 35.5 °F /  1.9 °C 29.68 in /  1005 hPa SSW 7.0 mph /  11.3 km/h 35.0 mph /  56.3 km/h 87 % 0.00 in /  0 mm 0 W/m2
08:10 38.9 °F /  3.8 °C 35.4 °F /  1.9 °C 29.68 in /  1005 hPa SW 6.0 mph /  9.7 km/h 35.0 mph /  56.3 km/h 87 % 0.00 in /  0 mm 0 W/m2
08:20 38.8 °F /  3.8 °C 35.3 °F /  1.8 °C 29.68 in /  1005 hPa SW 5.0 mph /  8 km/h 35.0 mph /  56.3 km/h 87 % 0.00 in /  0 mm 0 W/m2
08:25 38.7 °F /  3.7 °C 35.2 °F /  1.8 °C 29.68 in /  1005 hPa WSW 6.0 mph /  9.7 km/h 35.0 mph /  56.3 km/h 87 % 0.00 in /  0 mm 0 W/m2
08:30 38.6 °F /  3.7 °C 35.4 °F /  1.9 °C 29.68 in /  1005 hPa SW 7.0 mph /  11.3 km/h 7.0 mph /  11.3 km/h 88 % 0.00 in /  0 mm 5 W/m2
08:35 38.6 °F /  3.7 °C 35.4 °F /  1.9 °C 29.68 in /  1005 hPa West 8.0 mph /  12.9 km/h 8.0 mph /  12.9 km/h 88 % 0.00 in /  0 mm 0 W/m2
08:40 38.6 °F /  3.7 °C 35.4 °F /  1.9 °C 29.68 in /  1005 hPa WSW 7.0 mph /  11.3 km/h 35.0 mph /  56.3 km/h 88 % 0.00 in /  0 mm 9 W/m2
08:45 38.5 °F /  3.6 °C 35.3 °F /  1.8 °C 29.68 in /  1005 hPa West 7.0 mph /  11.3 km/h 35.0 mph /  56.3 km/h 88 % 0.00 in /  0 mm 11 W/m2
08:55 38.2 °F /  3.4 °C 35.2 °F /  1.8 °C 29.67 in /  1004.6 hPa SW 7.0 mph /  11.3 km/h 35.0 mph /  56.3 km/h 89 % 0.00 in /  0 mm 28 W/m2
09:00 38.0 °F /  3.3 °C 35.0 °F /  1.7 °C 29.66 in /  1004.3 hPa WSW 7.0 mph /  11.3 km/h 35.0 mph /  56.3 km/h 89 % 0.00 in /  0 mm 26 W/m2
09:05 37.9 °F /  3.3 °C 34.9 °F /  1.6 °C 29.66 in /  1004.3 hPa West 7.0 mph /  11.3 km/h 35.0 mph /  56.3 km/h 89 % 0.00 in /  0 mm 23 W/m2
09:15 37.6 °F /  3.1 °C 34.9 °F /  1.6 °C 29.65 in /  1003.9 hPa WSW 8.0 mph /  12.9 km/h 35.0 mph /  56.3 km/h 90 % 0.00 in /  0 mm 26 W/m2
09:20 37.6 °F /  3.1 °C 34.9 °F /  1.6 °C 29.65 in /  1003.9 hPa WNW 8.0 mph /  12.9 km/h 8.0 mph /  12.9 km/h 90 % 0.00 in /  0 mm 44 W/m2
09:25 37.6 °F /  3.1 °C 34.9 °F /  1.6 °C 29.65 in /  1003.9 hPa NW 8.0 mph /  12.9 km/h 35.0 mph /  56.3 km/h 90 % 0.00 in /  0 mm 49 W/m2
09:35 37.7 °F /  3.2 °C 35.0 °F /  1.7 °C 29.64 in /  1003.6 hPa West 9.0 mph /  14.5 km/h 35.0 mph /  56.3 km/h 90 % 0.00 in /  0 mm 74 W/m2
09:40 37.8 °F /  3.2 °C 35.4 °F /  1.9 °C 29.64 in /  1003.6 hPa WSW 8.0 mph /  12.9 km/h 8.0 mph /  12.9 km/h 91 % 0.00 in /  0 mm 76 W/m2
09:50 37.7 °F /  3.2 °C 35.3 °F /  1.8 °C 29.63 in /  1003.3 hPa West 6.0 mph /  9.7 km/h 35.0 mph /  56.3 km/h 91 % 0.00 in /  0 mm 70 W/m2
09:55 37.7 °F /  3.2 °C 35.3 °F /  1.8 °C 29.63 in /  1003.3 hPa WSW 6.0 mph /  9.7 km/h 35.0 mph /  56.3 km/h 91 % 0.00 in /  0 mm 72 W/m2
10:00 37.7 °F /  3.2 °C 35.3 °F /  1.8 °C 29.63 in /  1003.3 hPa West 6.0 mph /  9.7 km/h 35.0 mph /  56.3 km/h 91 % 0.00 in /  0 mm 76 W/m2
10:05 37.9 °F /  3.3 °C 35.5 °F /  1.9 °C 29.63 in /  1003.3 hPa WSW 9.0 mph /  14.5 km/h 35.0 mph /  56.3 km/h 91 % 0.00 in /  0 mm 67 W/m2
10:10 38.2 °F /  3.4 °C 35.5 °F /  1.9 °C 29.63 in /  1003.3 hPa West 10.0 mph /  16.1 km/h 10.0 mph /  16.1 km/h 90 % 0.00 in /  0 mm 79 W/m2
10:15 38.4 °F /  3.6 °C 35.7 °F /  2.1 °C 29.62 in /  1002.9 hPa WSW 9.0 mph /  14.5 km/h 35.0 mph /  56.3 km/h 90 % 0.00 in /  0 mm 88 W/m2
10:20 38.5 °F /  3.6 °C 35.8 °F /  2.1 °C 29.62 in /  1002.9 hPa WNW 8.0 mph /  12.9 km/h 35.0 mph /  56.3 km/h 90 % 0.00 in /  0 mm 93 W/m2
10:25 38.6 °F /  3.7 °C 35.9 °F /  2.2 °C 29.62 in /  1002.9 hPa WSW 9.0 mph /  14.5 km/h 35.0 mph /  56.3 km/h 90 % 0.00 in /  0 mm 65 W/m2
10:35 38.8 °F /  3.8 °C 36.1 °F /  2.3 °C 29.62 in /  1002.9 hPa WSW 7.0 mph /  11.3 km/h 13.0 mph /  20.9 km/h 90 % 0.00 in /  0 mm 56 W/m2
10:40 38.8 °F /  3.8 °C 36.1 °F /  2.3 °C 29.62 in /  1002.9 hPa WSW 9.0 mph /  14.5 km/h 9.0 mph /  14.5 km/h 90 % 0.00 in /  0 mm 60 W/m2
10:45 38.9 °F /  3.8 °C 36.2 °F /  2.3 °C 29.62 in /  1002.9 hPa West 10.0 mph /  16.1 km/h 10.0 mph /  16.1 km/h 90 % 0.00 in /  0 mm 81 W/m2
10:50 39.0 °F /  3.9 °C 36.3 °F /  2.4 °C 29.62 in /  1002.9 hPa West 9.0 mph /  14.5 km/h 9.0 mph /  14.5 km/h 90 % 0.00 in /  0 mm 98 W/m2
10:55 39.2 °F /  4 °C 36.5 °F /  2.5 °C 29.61 in /  1002.6 hPa WSW 7.0 mph /  11.3 km/h 35.0 mph /  56.3 km/h 90 % 0.00 in /  0 mm 97 W/m2
11:00 39.3 °F /  4.1 °C 36.3 °F /  2.4 °C 29.61 in /  1002.6 hPa WSW 7.0 mph /  11.3 km/h 35.0 mph /  56.3 km/h 89 % 0.00 in /  0 mm 76 W/m2
11:10 39.5 °F /  4.2 °C 36.8 °F /  2.7 °C 29.60 in /  1002.3 hPa WSW 7.0 mph /  11.3 km/h 35.0 mph /  56.3 km/h 90 % 0.00 in /  0 mm 98 W/m2
11:15 39.6 °F /  4.2 °C 36.9 °F /  2.7 °C 29.59 in /  1001.9 hPa West 6.0 mph /  9.7 km/h 35.0 mph /  56.3 km/h 90 % 0.00 in /  0 mm 97 W/m2
11:20 39.6 °F /  4.2 °C 36.9 °F /  2.7 °C 29.59 in /  1001.9 hPa SW 7.0 mph /  11.3 km/h 35.0 mph /  56.3 km/h 90 % 0.00 in /  0 mm 69 W/m2
11:25 39.5 °F /  4.2 °C 36.5 °F /  2.5 °C 29.59 in /  1001.9 hPa West 8.0 mph /  12.9 km/h 35.0 mph /  56.3 km/h 89 % 0.00 in /  0 mm 37 W/m2
11:30 39.4 °F /  4.1 °C 36.7 °F /  2.6 °C 29.58 in /  1001.6 hPa WSW 7.0 mph /  11.3 km/h 7.0 mph /  11.3 km/h 90 % 0.00 in /  0 mm 72 W/m2
11:35 39.4 °F /  4.1 °C 36.7 °F /  2.6 °C 29.58 in /  1001.6 hPa WSW 6.0 mph /  9.7 km/h 35.0 mph /  56.3 km/h 90 % 0.00 in /  0 mm 76 W/m2
11:40 39.4 °F /  4.1 °C 36.7 °F /  2.6 °C 29.58 in /  1001.6 hPa WSW 7.0 mph /  11.3 km/h 35.0 mph /  56.3 km/h 90 % 0.00 in /  0 mm 72 W/m2
11:50 39.4 °F /  4.1 °C 36.4 °F /  2.4 °C 29.58 in /  1001.6 hPa SW 7.0 mph /  11.3 km/h 35.0 mph /  56.3 km/h 89 % 0.00 in /  0 mm 62 W/m2
11:55 39.4 °F /  4.1 °C 36.4 °F /  2.4 °C 29.57 in /  1001.2 hPa WSW 8.0 mph /  12.9 km/h 35.0 mph /  56.3 km/h 89 % 0.00 in /  0 mm 63 W/m2
12:00 39.4 °F /  4.1 °C 36.4 °F /  2.4 °C 29.57 in /  1001.2 hPa WSW 8.0 mph /  12.9 km/h 35.0 mph /  56.3 km/h 89 % 0.00 in /  0 mm 63 W/m2
12:05 39.4 °F /  4.1 °C 36.1 °F /  2.3 °C 29.57 in /  1001.2 hPa WSW 8.0 mph /  12.9 km/h 35.0 mph /  56.3 km/h 88 % 0.00 in /  0 mm 51 W/m2
12:10 39.4 °F /  4.1 °C 36.1 °F /  2.3 °C 29.56 in /  1000.9 hPa West 9.0 mph /  14.5 km/h 9.0 mph /  14.5 km/h 88 % 0.00 in /  0 mm 60 W/m2
12:15 39.4 °F /  4.1 °C 36.1 °F /  2.3 °C 29.56 in /  1000.9 hPa WSW 10.0 mph /  16.1 km/h 10.0 mph /  16.1 km/h 88 % 0.00 in /  0 mm 62 W/m2
12:25 39.4 °F /  4.1 °C 35.9 °F /  2.2 °C 29.55 in /  1000.6 hPa West 9.0 mph /  14.5 km/h 35.0 mph /  56.3 km/h 87 % 0.00 in /  0 mm 63 W/m2
12:30 39.3 °F /  4.1 °C 36.0 °F /  2.2 °C 29.55 in /  1000.6 hPa WSW 7.0 mph /  11.3 km/h 7.0 mph /  11.3 km/h 88 % 0.00 in /  0 mm 51 W/m2
12:35 39.3 °F /  4.1 °C 36.0 °F /  2.2 °C 29.55 in /  1000.6 hPa WNW 7.0 mph /  11.3 km/h 35.0 mph /  56.3 km/h 88 % 0.00 in /  0 mm 30 W/m2
12:40 39.3 °F /  4.1 °C 36.0 °F /  2.2 °C 29.54 in /  1000.2 hPa West 8.0 mph /  12.9 km/h 35.0 mph /  56.3 km/h 88 % 0.00 in /  0 mm 25 W/m2
12:45 39.0 °F /  3.9 °C 36.0 °F /  2.2 °C 29.54 in /  1000.2 hPa NW 8.0 mph /  12.9 km/h 35.0 mph /  56.3 km/h 89 % 0.00 in /  0 mm 28 W/m2
12:50 38.7 °F /  3.7 °C 35.7 °F /  2.1 °C 29.54 in /  1000.2 hPa WNW 8.0 mph /  12.9 km/h 35.0 mph /  56.3 km/h 89 % 0.00 in /  0 mm 32 W/m2
12:55 38.5 °F /  3.6 °C 35.8 °F /  2.1 °C 29.54 in /  1000.2 hPa NW 8.0 mph /  12.9 km/h 35.0 mph /  56.3 km/h 90 % 0.00 in /  0 mm 18 W/m2
13:05 37.4 °F /  3 °C 34.7 °F /  1.5 °C 29.53 in /  999.9 hPa WNW 7.0 mph /  11.3 km/h 35.0 mph /  56.3 km/h 90 % 0.00 in /  0 mm 39 W/m2
13:10 37.2 °F /  2.9 °C 34.8 °F /  1.6 °C 29.52 in /  999.5 hPa WNW 5.0 mph /  8 km/h 5.0 mph /  8 km/h 91 % 0.00 in /  0 mm 39 W/m2
13:15 37.1 °F /  2.8 °C 35.0 °F /  1.7 °C 29.52 in /  999.5 hPa WSW 3.0 mph /  4.8 km/h 35.0 mph /  56.3 km/h 92 % 0.00 in /  0 mm 53 W/m2
13:20 37.1 °F /  2.8 °C 35.0 °F /  1.7 °C 29.51 in /  999.2 hPa WSW 2.0 mph /  3.2 km/h 2.0 mph /  3.2 km/h 92 % 0.00 in /  0 mm 51 W/m2
13:25 36.9 °F /  2.7 °C 34.8 °F /  1.6 °C 29.51 in /  999.2 hPa WSW 2.0 mph /  3.2 km/h 35.0 mph /  56.3 km/h 92 % 0.00 in /  0 mm 47 W/m2
13:30 36.9 °F /  2.7 °C 34.8 °F /  1.6 °C 29.51 in /  999.2 hPa WSW 2.0 mph /  3.2 km/h 35.0 mph /  56.3 km/h 92 % 0.00 in /  0 mm 44 W/m2
13:40 36.7 °F /  2.6 °C 34.9 °F /  1.6 °C 29.50 in /  998.9 hPa WSW 2.0 mph /  3.2 km/h 2.0 mph /  3.2 km/h 93 % 0.00 in /  0 mm 42 W/m2
13:45 36.6 °F /  2.6 °C 34.8 °F /  1.6 °C 29.50 in /  998.9 hPa WSW 1.0 mph /  1.6 km/h 35.0 mph /  56.3 km/h 93 % 0.00 in /  0 mm 46 W/m2
13:50 36.5 °F /  2.5 °C 34.7 °F /  1.5 °C 29.49 in /  998.5 hPa Calm   35.0 mph /  56.3 km/h 93 % 0.00 in /  0 mm 51 W/m2
13:55 36.5 °F /  2.5 °C 34.7 °F /  1.5 °C 29.49 in /  998.5 hPa Calm   35.0 mph /  56.3 km/h 93 % 0.00 in /  0 mm 49 W/m2
14:00 36.5 °F /  2.5 °C 34.7 °F /  1.5 °C 29.48 in /  998.2 hPa Calm   35.0 mph /  56.3 km/h 93 % 0.00 in /  0 mm 51 W/m2
14:05 36.5 °F /  2.5 °C 34.7 °F /  1.5 °C 29.48 in /  998.2 hPa Calm   35.0 mph /  56.3 km/h 93 % 0.00 in /  0 mm 53 W/m2
14:10 36.7 °F /  2.6 °C 35.1 °F /  1.7 °C 29.48 in /  998.2 hPa Calm   35.0 mph /  56.3 km/h 94 % 0.00 in /  0 mm 49 W/m2
14:20 36.9 °F /  2.7 °C 35.3 °F /  1.8 °C 29.48 in /  998.2 hPa West 4.0 mph /  6.4 km/h 35.0 mph /  56.3 km/h 94 % 0.00 in /  0 mm 44 W/m2
14:25 37.0 °F /  2.8 °C 35.4 °F /  1.9 °C 29.47 in /  997.9 hPa West 5.0 mph /  8 km/h 35.0 mph /  56.3 km/h 94 % 0.00 in /  0 mm 39 W/m2
14:30 37.1 °F /  2.8 °C 35.3 °F /  1.8 °C 29.47 in /  997.9 hPa WSW 4.0 mph /  6.4 km/h 35.0 mph /  56.3 km/h 93 % 0.00 in /  0 mm 33 W/m2
14:35 37.2 °F /  2.9 °C 35.4 °F /  1.9 °C 29.47 in /  997.9 hPa West 5.0 mph /  8 km/h 35.0 mph /  56.3 km/h 93 % 0.00 in /  0 mm 33 W/m2
14:40 37.2 °F /  2.9 °C 35.4 °F /  1.9 °C 29.47 in /  997.9 hPa West 4.0 mph /  6.4 km/h 35.0 mph /  56.3 km/h 93 % 0.00 in /  0 mm 30 W/m2
14:45 37.3 °F /  2.9 °C 35.5 °F /  1.9 °C 29.46 in /  997.5 hPa West 5.0 mph /  8 km/h 35.0 mph /  56.3 km/h 93 % 0.00 in /  0 mm 26 W/m2
14:50 37.3 °F /  2.9 °C 35.5 °F /  1.9 °C 29.46 in /  997.5 hPa West 5.0 mph /  8 km/h 35.0 mph /  56.3 km/h 93 % 0.00 in /  0 mm 28 W/m2
15:00 37.3 °F /  2.9 °C 35.2 °F /  1.8 °C 29.46 in /  997.5 hPa WNW 5.0 mph /  8 km/h 5.0 mph /  8 km/h 92 % 0.00 in /  0 mm 25 W/m2
15:05 37.3 °F /  2.9 °C 35.2 °F /  1.8 °C 29.45 in /  997.2 hPa WNW 4.0 mph /  6.4 km/h 35.0 mph /  56.3 km/h 92 % 0.00 in /  0 mm 23 W/m2
15:10 37.4 °F /  3 °C 35.3 °F /  1.8 °C 29.45 in /  997.2 hPa West 3.0 mph /  4.8 km/h 35.0 mph /  56.3 km/h 92 % 0.00 in /  0 mm 23 W/m2
15:15 37.3 °F /  2.9 °C 35.2 °F /  1.8 °C 29.44 in /  996.8 hPa West 4.0 mph /  6.4 km/h 35.0 mph /  56.3 km/h 92 % 0.00 in /  0 mm 23 W/m2
15:20 37.3 °F /  2.9 °C 35.2 °F /  1.8 °C 29.44 in /  996.8 hPa WNW 4.0 mph /  6.4 km/h 4.0 mph /  6.4 km/h 92 % 0.00 in /  0 mm 19 W/m2
15:30 37.2 °F /  2.9 °C 34.8 °F /  1.6 °C 29.44 in /  996.8 hPa WNW 3.0 mph /  4.8 km/h 3.0 mph /  4.8 km/h 91 % 0.00 in /  0 mm 14 W/m2
15:35 37.1 °F /  2.8 °C 34.7 °F /  1.5 °C 29.44 in /  996.8 hPa WNW 3.0 mph /  4.8 km/h 35.0 mph /  56.3 km/h 91 % 0.00 in /  0 mm 12 W/m2
15:40 37.1 °F /  2.8 °C 34.7 °F /  1.5 °C 29.44 in /  996.8 hPa NNW 3.0 mph /  4.8 km/h 35.0 mph /  56.3 km/h 91 % 0.00 in /  0 mm 9 W/m2
15:45 37.1 °F /  2.8 °C 34.7 °F /  1.5 °C 29.44 in /  996.8 hPa NW 3.0 mph /  4.8 km/h 35.0 mph /  56.3 km/h 91 % 0.00 in /  0 mm 7 W/m2
15:50 37.0 °F /  2.8 °C 34.6 °F /  1.4 °C 29.44 in /  996.8 hPa NNW 3.0 mph /  4.8 km/h 3.0 mph /  4.8 km/h 91 % 0.00 in /  0 mm 7 W/m2
16:00 36.9 °F /  2.7 °C 34.5 °F /  1.4 °C 29.43 in /  996.5 hPa WNW 5.0 mph /  8 km/h 35.0 mph /  56.3 km/h 91 % 0.00 in /  0 mm 5 W/m2
16:05 36.9 °F /  2.7 °C 34.5 °F /  1.4 °C 29.43 in /  996.5 hPa NNW 6.0 mph /  9.7 km/h 35.0 mph /  56.3 km/h 91 % 0.00 in /  0 mm 0 W/m2
16:10 36.9 °F /  2.7 °C 34.2 °F /  1.2 °C 29.43 in /  996.5 hPa WNW 7.0 mph /  11.3 km/h 35.0 mph /  56.3 km/h 90 % 0.00 in /  0 mm 0 W/m2
16:15 36.9 °F /  2.7 °C 34.2 °F /  1.2 °C 29.43 in /  996.5 hPa WNW 6.0 mph /  9.7 km/h 35.0 mph /  56.3 km/h 90 % 0.00 in /  0 mm 0 W/m2
16:20 36.9 °F /  2.7 °C 34.2 °F /  1.2 °C 29.42 in /  996.2 hPa WNW 5.0 mph /  8 km/h 35.0 mph /  56.3 km/h 90 % 0.00 in /  0 mm 0 W/m2
16:25 36.8 °F /  2.7 °C 34.1 °F /  1.2 °C 29.42 in /  996.2 hPa NW 7.0 mph /  11.3 km/h 35.0 mph /  56.3 km/h 90 % 0.00 in /  0 mm 0 W/m2
16:30 36.8 °F /  2.7 °C 34.1 °F /  1.2 °C 29.43 in /  996.5 hPa NW 8.0 mph /  12.9 km/h 8.0 mph /  12.9 km/h 90 % 0.00 in /  0 mm 0 W/m2
16:40 36.8 °F /  2.7 °C 34.1 °F /  1.2 °C 29.42 in /  996.2 hPa WNW 7.0 mph /  11.3 km/h 35.0 mph /  56.3 km/h 90 % 0.00 in /  0 mm 0 W/m2
16:45 36.9 °F /  2.7 °C 34.2 °F /  1.2 °C 29.42 in /  996.2 hPa WNW 8.0 mph /  12.9 km/h 35.0 mph /  56.3 km/h 90 % 0.00 in /  0 mm 0 W/m2
16:50 36.7 °F /  2.6 °C 33.8 °F /  1 °C 29.41 in /  995.8 hPa NW 8.0 mph /  12.9 km/h 8.0 mph /  12.9 km/h 89 % 0.00 in /  0 mm 0 W/m2
16:55 36.5 °F /  2.5 °C 33.6 °F /  0.9 °C 29.41 in /  995.8 hPa NW 8.0 mph /  12.9 km/h 35.0 mph /  56.3 km/h 89 % 0.00 in /  0 mm 0 W/m2
17:00 36.3 °F /  2.4 °C 33.4 °F /  0.8 °C 29.42 in /  996.2 hPa WNW 8.0 mph /  12.9 km/h 35.0 mph /  56.3 km/h 89 % 0.00 in /  0 mm 0 W/m2
17:05 36.2 °F /  2.3 °C 33.3 °F /  0.7 °C 29.41 in /  995.8 hPa WNW 9.0 mph /  14.5 km/h 35.0 mph /  56.3 km/h 89 % 0.00 in /  0 mm 0 W/m2
17:10 36.2 °F /  2.3 °C 33.3 °F /  0.7 °C 29.42 in /  996.2 hPa WNW 8.0 mph /  12.9 km/h 35.0 mph /  56.3 km/h 89 % 0.00 in /  0 mm 0 W/m2
17:15 36.1 °F /  2.3 °C 33.2 °F /  0.7 °C 29.41 in /  995.8 hPa NW 7.0 mph /  11.3 km/h 35.0 mph /  56.3 km/h 89 % 0.00 in /  0 mm 0 W/m2
17:25 36.1 °F /  2.3 °C 32.9 °F /  0.5 °C 29.41 in /  995.8 hPa NW 8.0 mph /  12.9 km/h 11.0 mph /  17.7 km/h 88 % 0.00 in /  0 mm 0 W/m2
17:30 36.1 °F /  2.3 °C 32.9 °F /  0.5 °C 29.41 in /  995.8 hPa NW 7.0 mph /  11.3 km/h 35.0 mph /  56.3 km/h 88 % 0.00 in /  0 mm 0 W/m2
17:35 36.0 °F /  2.2 °C 32.8 °F /  0.4 °C 29.41 in /  995.8 hPa NW 6.0 mph /  9.7 km/h 35.0 mph /  56.3 km/h 88 % 0.00 in /  0 mm 0 W/m2
17:40 36.0 °F /  2.2 °C 33.1 °F /  0.6 °C 29.41 in /  995.8 hPa NW 6.0 mph /  9.7 km/h 35.0 mph /  56.3 km/h 89 % 0.00 in /  0 mm 0 W/m2
17:45 36.0 °F /  2.2 °C 33.1 °F /  0.6 °C 29.40 in /  995.5 hPa NW 8.0 mph /  12.9 km/h 35.0 mph /  56.3 km/h 89 % 0.00 in /  0 mm 0 W/m2
17:50 36.0 °F /  2.2 °C 33.1 °F /  0.6 °C 29.40 in /  995.5 hPa NW 8.0 mph /  12.9 km/h 35.0 mph /  56.3 km/h 89 % 0.00 in /  0 mm 0 W/m2
17:55 36.0 °F /  2.2 °C 32.8 °F /  0.4 °C 29.40 in /  995.5 hPa WNW 9.0 mph /  14.5 km/h 35.0 mph /  56.3 km/h 88 % 0.00 in /  0 mm 0 W/m2
18:05 35.9 °F /  2.2 °C 32.7 °F /  0.4 °C 29.40 in /  995.5 hPa WNW 9.0 mph /  14.5 km/h 11.0 mph /  17.7 km/h 88 % 0.00 in /  0 mm 0 W/m2
18:10 35.9 °F /  2.2 °C 32.7 °F /  0.4 °C 29.40 in /  995.5 hPa WNW 11.0 mph /  17.7 km/h 35.0 mph /  56.3 km/h 88 % 0.00 in /  0 mm 0 W/m2
18:15 35.8 °F /  2.1 °C 32.6 °F /  0.3 °C 29.40 in /  995.5 hPa WNW 11.0 mph /  17.7 km/h 35.0 mph /  56.3 km/h 88 % 0.00 in /  0 mm 0 W/m2
18:20 35.8 °F /  2.1 °C 32.3 °F /  0.2 °C 29.40 in /  995.5 hPa WNW 11.0 mph /  17.7 km/h 11.0 mph /  17.7 km/h 87 % 0.00 in /  0 mm 0 W/m2
18:25 35.8 °F /  2.1 °C 32.3 °F /  0.2 °C 29.40 in /  995.5 hPa WNW 10.0 mph /  16.1 km/h 35.0 mph /  56.3 km/h 87 % 0.00 in /  0 mm 0 W/m2
18:30 35.7 °F /  2.1 °C 32.2 °F /  0.1 °C 29.40 in /  995.5 hPa West 9.0 mph /  14.5 km/h 35.0 mph /  56.3 km/h 87 % 0.00 in /  0 mm 0 W/m2
18:35 35.6 °F /  2 °C 31.8 °F /  -0.1 °C 29.41 in /  995.8 hPa WNW 10.0 mph /  16.1 km/h 35.0 mph /  56.3 km/h 86 % 0.00 in /  0 mm 0 W/m2
18:45 35.3 °F /  1.8 °C 31.2 °F /  -0.4 °C 29.40 in /  995.5 hPa NW 10.0 mph /  16.1 km/h 35.0 mph /  56.3 km/h 85 % 0.00 in /  0 mm 0 W/m2
18:50 35.1 °F /  1.7 °C 31.0 °F /  -0.6 °C 29.41 in /  995.8 hPa NNW 8.0 mph /  12.9 km/h 8.0 mph /  12.9 km/h 85 % 0.00 in /  0 mm 0 W/m2
18:55 34.9 °F /  1.6 °C 30.8 °F /  -0.7 °C 29.41 in /  995.8 hPa NNW 8.0 mph /  12.9 km/h 10.0 mph /  16.1 km/h 85 % 0.00 in /  0 mm 0 W/m2
19:00 34.8 °F /  1.6 °C 30.8 °F /  -0.7 °C 29.40 in /  995.5 hPa NW 9.0 mph /  14.5 km/h 35.0 mph /  56.3 km/h 85 % 0.00 in /  0 mm 0 W/m2
19:05 34.8 °F /  1.6 °C 30.8 °F /  -0.7 °C 29.40 in /  995.5 hPa NNW 9.0 mph /  14.5 km/h 35.0 mph /  56.3 km/h 85 % 0.00 in /  0 mm 0 W/m2
19:10 34.7 °F /  1.5 °C 30.9 °F /  -0.6 °C 29.40 in /  995.5 hPa WNW 9.0 mph /  14.5 km/h 9.0 mph /  14.5 km/h 86 % 0.00 in /  0 mm 0 W/m2
19:20 34.6 °F /  1.4 °C 30.8 °F /  -0.7 °C 29.40 in /  995.5 hPa WNW 8.0 mph /  12.9 km/h 35.0 mph /  56.3 km/h 86 % 0.00 in /  0 mm 0 W/m2
19:25 34.5 °F /  1.4 °C 30.7 °F /  -0.7 °C 29.40 in /  995.5 hPa WNW 8.0 mph /  12.9 km/h 35.0 mph /  56.3 km/h 86 % 0.00 in /  0 mm 0 W/m2
19:30 34.4 °F /  1.3 °C 30.6 °F /  -0.8 °C 29.41 in /  995.8 hPa WNW 9.0 mph /  14.5 km/h 35.0 mph /  56.3 km/h 86 % 0.00 in /  0 mm 0 W/m2
19:35 34.4 °F /  1.3 °C 30.6 °F /  -0.8 °C 29.41 in /  995.8 hPa NW 9.0 mph /  14.5 km/h 35.0 mph /  56.3 km/h 86 % 0.00 in /  0 mm 0 W/m2
19:40 34.3 °F /  1.3 °C 30.5 °F /  -0.8 °C 29.40 in /  995.5 hPa NW 10.0 mph /  16.1 km/h 10.0 mph /  16.1 km/h 86 % 0.00 in /  0 mm 0 W/m2
19:45 34.3 °F /  1.3 °C 30.5 °F /  -0.8 °C 29.40 in /  995.5 hPa WNW 9.0 mph /  14.5 km/h 35.0 mph /  56.3 km/h 86 % 0.00 in /  0 mm 0 W/m2
19:50 34.2 °F /  1.2 °C 30.4 °F /  -0.9 °C 29.40 in /  995.5 hPa NW 8.0 mph /  12.9 km/h 35.0 mph /  56.3 km/h 86 % 0.00 in /  0 mm 0 W/m2
20:00 34.0 °F /  1.1 °C 30.5 °F /  -0.8 °C 29.40 in /  995.5 hPa WNW 9.0 mph /  14.5 km/h 35.0 mph /  56.3 km/h 87 % 0.00 in /  0 mm 0 W/m2
20:05 34.0 °F /  1.1 °C 30.5 °F /  -0.8 °C 29.41 in /  995.8 hPa NW 10.0 mph /  16.1 km/h 35.0 mph /  56.3 km/h 87 % 0.00 in /  0 mm 0 W/m2
20:10 34.0 °F /  1.1 °C 30.3 °F /  -0.9 °C 29.40 in /  995.5 hPa WNW 12.0 mph /  19.3 km/h 35.0 mph /  56.3 km/h 86 % 0.00 in /  0 mm 0 W/m2
20:15 34.1 °F /  1.2 °C 30.4 °F /  -0.9 °C 29.41 in /  995.8 hPa WNW 13.0 mph /  20.9 km/h 35.0 mph /  56.3 km/h 86 % 0.00 in /  0 mm 0 W/m2
20:20 34.1 °F /  1.2 °C 30.4 °F /  -0.9 °C 29.41 in /  995.8 hPa WNW 11.0 mph /  17.7 km/h 11.0 mph /  17.7 km/h 86 % 0.00 in /  0 mm 0 W/m2
20:25 34.0 °F /  1.1 °C 30.5 °F /  -0.8 °C 29.41 in /  995.8 hPa West 10.0 mph /  16.1 km/h 35.0 mph /  56.3 km/h 87 % 0.00 in /  0 mm 0 W/m2
20:35 33.9 °F /  1.1 °C 30.4 °F /  -0.9 °C 29.41 in /  995.8 hPa WNW 10.0 mph /  16.1 km/h 13.0 mph /  20.9 km/h 87 % 0.00 in /  0 mm 0 W/m2
20:40 33.9 °F /  1.1 °C 30.7 °F /  -0.7 °C 29.41 in /  995.8 hPa NW 11.0 mph /  17.7 km/h 11.0 mph /  17.7 km/h 88 % 0.00 in /  0 mm 0 W/m2
20:45 33.8 °F /  1 °C 30.6 °F /  -0.8 °C 29.41 in /  995.8 hPa WNW 10.0 mph /  16.1 km/h 35.0 mph /  56.3 km/h 88 % 0.00 in /  0 mm 0 W/m2
20:50 33.6 °F /  0.9 °C 30.4 °F /  -0.9 °C 29.41 in /  995.8 hPa WNW 9.0 mph /  14.5 km/h 35.0 mph /  56.3 km/h 88 % 0.00 in /  0 mm 0 W/m2
20:55 33.6 °F /  0.9 °C 30.7 °F /  -0.7 °C 29.41 in /  995.8 hPa West 9.0 mph /  14.5 km/h 35.0 mph /  56.3 km/h 89 % 0.00 in /  0 mm 0 W/m2
21:00 33.5 °F /  0.8 °C 30.6 °F /  -0.8 °C 29.41 in /  995.8 hPa WNW 9.0 mph /  14.5 km/h 35.0 mph /  56.3 km/h 89 % 0.00 in /  0 mm 0 W/m2
21:10 33.6 °F /  0.9 °C 30.7 °F /  -0.7 °C 29.41 in /  995.8 hPa WNW 10.0 mph /  16.1 km/h 10.0 mph /  16.1 km/h 89 % 0.00 in /  0 mm 0 W/m2
21:15 33.6 °F /  0.9 °C 30.7 °F /  -0.7 °C 29.42 in /  996.2 hPa NW 10.0 mph /  16.1 km/h 12.0 mph /  19.3 km/h 89 % 0.00 in /  0 mm 0 W/m2
21:20 33.6 °F /  0.9 °C 30.7 °F /  -0.7 °C 29.42 in /  996.2 hPa West 9.0 mph /  14.5 km/h 9.0 mph /  14.5 km/h 89 % 0.00 in /  0 mm 0 W/m2
21:25 33.7 °F /  0.9 °C 30.8 °F /  -0.7 °C 29.42 in /  996.2 hPa WNW 10.0 mph /  16.1 km/h 14.0 mph /  22.5 km/h 89 % 0.00 in /  0 mm 0 W/m2
21:30 33.8 °F /  1 °C 30.6 °F /  -0.8 °C 29.42 in /  996.2 hPa WNW 10.0 mph /  16.1 km/h 35.0 mph /  56.3 km/h 88 % 0.00 in /  0 mm 0 W/m2
21:35 33.8 °F /  1 °C 30.9 °F /  -0.6 °C 29.42 in /  996.2 hPa WNW 10.0 mph /  16.1 km/h 35.0 mph /  56.3 km/h 89 % 0.00 in /  0 mm 0 W/m2
21:45 33.9 °F /  1.1 °C 31.0 °F /  -0.6 °C 29.43 in /  996.5 hPa NW 10.0 mph /  16.1 km/h 35.0 mph /  56.3 km/h 89 % 0.00 in /  0 mm 0 W/m2
21:50 33.9 °F /  1.1 °C 30.7 °F /  -0.7 °C 29.43 in /  996.5 hPa NW 11.0 mph /  17.7 km/h 35.0 mph /  56.3 km/h 88 % 0.00 in /  0 mm 0 W/m2
21:55 33.9 °F /  1.1 °C 30.7 °F /  -0.7 °C 29.44 in /  996.8 hPa WSW 11.0 mph /  17.7 km/h 35.0 mph /  56.3 km/h 88 % 0.00 in /  0 mm 0 W/m2
22:00 33.9 °F /  1.1 °C 30.7 °F /  -0.7 °C 29.44 in /  996.8 hPa West 10.0 mph /  16.1 km/h 10.0 mph /  16.1 km/h 88 % 0.00 in /  0 mm 0 W/m2
22:05 33.8 °F /  1 °C 30.6 °F /  -0.8 °C 29.44 in /  996.8 hPa West 9.0 mph /  14.5 km/h 35.0 mph /  56.3 km/h 88 % 0.00 in /  0 mm 0 W/m2
22:10 33.8 °F /  1 °C 30.6 °F /  -0.8 °C 29.44 in /  996.8 hPa WSW 9.0 mph /  14.5 km/h 35.0 mph /  56.3 km/h 88 % 0.00 in /  0 mm 0 W/m2
22:15 33.8 °F /  1 °C 30.6 °F /  -0.8 °C 29.44 in /  996.8 hPa WNW 9.0 mph /  14.5 km/h 35.0 mph /  56.3 km/h 88 % 0.00 in /  0 mm 0 W/m2
22:25 33.6 °F /  0.9 °C 30.4 °F /  -0.9 °C 29.44 in /  996.8 hPa WNW 8.0 mph /  12.9 km/h 35.0 mph /  56.3 km/h 88 % 0.00 in /  0 mm 0 W/m2
22:30 33.6 °F /  0.9 °C 30.4 °F /  -0.9 °C 29.45 in /  997.2 hPa NW 9.0 mph /  14.5 km/h 35.0 mph /  56.3 km/h 88 % 0.00 in /  0 mm 0 W/m2
22:35 33.7 °F /  0.9 °C 30.5 °F /  -0.8 °C 29.45 in /  997.2 hPa West 10.0 mph /  16.1 km/h 35.0 mph /  56.3 km/h 88 % 0.00 in /  0 mm 0 W/m2
22:40 33.6 °F /  0.9 °C 30.1 °F /  -1.1 °C 29.45 in /  997.2 hPa West 9.0 mph /  14.5 km/h 9.0 mph /  14.5 km/h 87 % 0.00 in /  0 mm 0 W/m2
22:45 33.6 °F /  0.9 °C 30.1 °F /  -1.1 °C 29.45 in /  997.2 hPa WNW 8.0 mph /  12.9 km/h 35.0 mph /  56.3 km/h 87 % 0.00 in /  0 mm 0 W/m2
22:50 33.5 °F /  0.8 °C 30.0 °F /  -1.1 °C 29.45 in /  997.2 hPa WNW 8.0 mph /  12.9 km/h 8.0 mph /  12.9 km/h 87 % 0.00 in /  0 mm 0 W/m2
23:00 33.5 °F /  0.8 °C 30.0 °F /  -1.1 °C 29.45 in /  997.2 hPa NNW 7.0 mph /  11.3 km/h 35.0 mph /  56.3 km/h 87 % 0.00 in /  0 mm 0 W/m2
23:05 33.7 °F /  0.9 °C 30.2 °F /  -1 °C 29.46 in /  997.5 hPa WNW 8.0 mph /  12.9 km/h 35.0 mph /  56.3 km/h 87 % 0.00 in /  0 mm 0 W/m2
23:10 33.8 °F /  1 °C 30.3 °F /  -0.9 °C 29.46 in /  997.5 hPa West 9.0 mph /  14.5 km/h 35.0 mph /  56.3 km/h 87 % 0.00 in /  0 mm 0 W/m2
23:15 34.0 °F /  1.1 °C 30.5 °F /  -0.8 °C 29.46 in /  997.5 hPa WNW 10.0 mph /  16.1 km/h 35.0 mph /  56.3 km/h 87 % 0.00 in /  0 mm 0 W/m2
23:20 34.2 °F /  1.2 °C 31.0 °F /  -0.6 °C 29.46 in /  997.5 hPa West 11.0 mph /  17.7 km/h 35.0 mph /  56.3 km/h 88 % 0.00 in /  0 mm 0 W/m2
23:25 34.4 °F /  1.3 °C 31.2 °F /  -0.4 °C 29.46 in /  997.5 hPa NW 12.0 mph /  19.3 km/h 35.0 mph /  56.3 km/h 88 % 0.00 in /  0 mm 0 W/m2
23:30 34.5 °F /  1.4 °C 31.3 °F /  -0.4 °C 29.47 in /  997.9 hPa WNW 11.0 mph /  17.7 km/h 11.0 mph /  17.7 km/h 88 % 0.00 in /  0 mm 0 W/m2
23:39 34.5 °F /  1.4 °C 31.3 °F /  -0.4 °C 29.47 in /  997.9 hPa WNW 10.0 mph /  16.1 km/h 35.0 mph /  56.3 km/h 88 % 0.00 in /  0 mm 0 W/m2
23:45 34.5 °F /  1.4 °C 31.3 °F /  -0.4 °C 29.48 in /  998.2 hPa WNW 10.0 mph /  16.1 km/h 35.0 mph /  56.3 km/h 88 % 0.00 in /  0 mm 0 W/m2
23:50 34.4 °F /  1.3 °C 31.2 °F /  -0.4 °C 29.49 in /  998.5 hPa NW 10.0 mph /  16.1 km/h 10.0 mph /  16.1 km/h 88 % 0.00 in /  0 mm 0 W/m2
23:55 34.3 °F /  1.3 °C 31.1 °F /  -0.5 °C 29.49 in /  998.5 hPa WNW 10.0 mph /  16.1 km/h 35.0 mph /  56.3 km/h 88 % 0.00 in /  0 mm 0 W/m2
Delerius-Weather
Compliments of Weather Underground - 2 mb

Data updates at regular intervals.